Time;durP1;ratioP1;P1;durP2;ratioP2;P2;SDS_P1;SDS_P2;PMS_P1;PMS_P2;Temp;Humidity;BMP_temperature;BMP_pressure;BME280_temperature;BME280_humidity;BME280_pressure;Samples;Min_cycle;Max_cycle;Signal;HPM_P1;HPM_P2
2022/10/09 00:00:49;;;;;;;4.82;3.50;;;15.00;99.90;;;;;;5026778;28;20419;-80
2022/10/09 00:03:17;;;;;;;5.20;3.72;;;15.10;99.90;;;;;;5012618;28;20029;-80
2022/10/09 00:05:43;;;;;;;4.13;3.78;;;15.00;99.90;;;;;;5010933;28;20495;-80
2022/10/09 00:08:10;;;;;;;4.15;3.75;;;15.10;99.90;;;;;;5012574;28;20127;-80
2022/10/09 00:10:43;;;;;;;4.35;3.40;;;15.10;99.90;;;;;;5011829;28;20021;-80
2022/10/09 00:13:08;;;;;;;3.38;3.08;;;15.10;99.90;;;;;;5012393;28;20022;-80
2022/10/09 00:15:42;;;;;;;3.83;3.53;;;14.90;99.90;;;;;;5027439;28;20030;-80
2022/10/09 00:18:09;;;;;;;3.80;3.40;;;15.00;99.90;;;;;;5012590;28;20101;-80
2022/10/09 00:20:40;;;;;;;4.90;3.53;;;15.00;99.90;;;;;;5011887;28;20071;-80
2022/10/09 00:23:06;;;;;;;5.72;4.10;;;15.00;99.90;;;;;;5012295;28;20053;-80
2022/10/09 00:25:33;;;;;;;4.13;3.72;;;14.90;99.90;;;;;;5012140;28;20030;-80
2022/10/09 00:27:59;;;;;;;4.72;3.35;;;14.90;99.90;;;;;;5011892;28;20052;-80
2022/10/09 00:30:25;;;;;;;4.00;3.60;;;15.00;99.90;;;;;;5011864;28;20022;-80
2022/10/09 00:32:51;;;;;;;5.07;4.18;;;14.80;99.90;;;;;;5010247;28;20482;-80
2022/10/09 00:35:17;;;;;;;4.40;3.65;;;14.80;99.90;;;;;;5005168;28;20034;-80
2022/10/09 00:37:43;;;;;;;4.35;3.95;;;14.90;99.90;;;;;;5011975;28;20084;-80
2022/10/09 00:40:09;;;;;;;3.92;3.55;;;14.90;99.90;;;;;;5011787;28;20037;-80
2022/10/09 00:42:35;;;;;;;3.65;3.35;;;14.90;99.90;;;;;;5006922;28;20118;-80
2022/10/09 00:45:02;;;;;;;3.83;3.45;;;14.80;99.90;;;;;;5005244;28;20105;-80
2022/10/09 00:47:39;;;;;;;3.67;3.28;;;14.70;99.90;;;;;;5011166;28;20673;-80
2022/10/09 00:50:27;;;;;;;3.78;3.47;;;14.80;99.90;;;;;;5011453;28;20018;-80
2022/10/09 00:52:57;;;;;;;3.35;3.05;;;14.70;99.90;;;;;;5026444;28;20049;-80
2022/10/09 00:55:23;;;;;;;4.45;3.63;;;14.50;99.90;;;;;;5010103;28;20072;-80
2022/10/09 00:57:50;;;;;;;4.65;3.70;;;14.50;99.90;;;;;;5009707;28;20038;-80
2022/10/09 01:00:16;;;;;;;3.80;3.50;;;14.60;99.90;;;;;;5019909;28;20034;-80
2022/10/09 01:02:42;;;;;;;4.25;3.53;;;14.60;99.90;;;;;;5014170;28;20133;-80
2022/10/09 01:05:09;;;;;;;3.83;3.17;;;14.60;99.90;;;;;;5011252;28;20022;-80
2022/10/09 01:08:09;;;;;;;4.28;3.05;;;14.50;99.90;;;;;;5026324;28;20037;-80
2022/10/09 01:10:54;;;;;;;3.42;3.13;;;14.50;99.90;;;;;;5010982;28;20022;-80
2022/10/09 01:13:33;;;;;;;3.72;3.40;;;14.50;99.90;;;;;;4998266;28;20037;-80
2022/10/09 01:16:26;;;;;;;4.20;3.80;;;14.40;99.90;;;;;;5006085;28;20036;-80
2022/10/09 01:19:39;;;;;;;5.72;3.53;;;14.40;99.90;;;;;;5012818;28;20041;-80
2022/10/09 01:22:37;;;;;;;4.00;3.70;;;14.50;99.90;;;;;;5010555;28;20053;-80
2022/10/09 01:25:17;;;;;;;4.45;4.05;;;14.40;99.90;;;;;;5002833;28;20045;-80
2022/10/09 01:27:43;;;;;;;4.13;3.43;;;14.40;99.90;;;;;;5007045;28;20041;-80
2022/10/09 01:30:11;;;;;;;3.60;3.30;;;14.40;99.90;;;;;;5026086;28;20695;-80
2022/10/09 01:32:44;;;;;;;3.83;3.47;;;14.40;99.90;;;;;;5010502;28;20076;-80
2022/10/09 01:35:12;;;;;;;3.67;3.30;;;14.20;99.90;;;;;;5003932;28;20096;-80
2022/10/09 01:37:41;;;;;;;4.45;3.60;;;14.30;99.90;;;;;;5010940;28;20034;-80
2022/10/09 01:40:07;;;;;;;3.67;3.38;;;14.30;99.90;;;;;;5010669;28;20072;-80
2022/10/09 01:42:33;;;;;;;4.53;3.85;;;14.40;99.90;;;;;;5010498;28;20034;-80
2022/10/09 01:44:59;;;;;;;4.63;3.88;;;14.30;99.90;;;;;;5010634;28;20399;-80
2022/10/09 01:47:25;;;;;;;3.58;3.28;;;14.30;99.90;;;;;;5010498;28;20029;-80
2022/10/09 01:50:02;;;;;;;4.60;3.47;;;14.30;99.90;;;;;;5010749;28;20021;-80
2022/10/09 01:52:48;;;;;;;3.90;3.58;;;14.30;99.90;;;;;;5025123;28;20028;-80
2022/10/09 01:55:20;;;;;;;3.40;3.10;;;14.20;99.90;;;;;;5010335;28;20109;-80
2022/10/09 01:57:54;;;;;;;3.88;3.47;;;14.20;99.90;;;;;;5010459;28;20164;-80
2022/10/09 02:00:21;;;;;;;4.07;3.67;;;14.20;99.90;;;;;;5010432;28;20034;-81
2022/10/09 02:02:49;;;;;;;4.55;4.00;;;14.00;99.90;;;;;;5009948;28;20037;-81
2022/10/09 02:05:19;;;;;;;4.75;3.53;;;14.20;99.90;;;;;;5010566;28;20030;-81
2022/10/09 02:07:46;;;;;;;4.32;3.90;;;14.10;99.90;;;;;;5010441;28;20026;-81
2022/10/09 02:10:14;;;;;;;4.18;3.70;;;14.10;99.90;;;;;;5009754;28;20130;-81
2022/10/09 02:12:44;;;;;;;4.95;3.65;;;14.10;99.90;;;;;;5008947;28;20595;-81
2022/10/09 02:15:11;;;;;;;3.67;3.33;;;14.10;99.90;;;;;;5010359;28;20057;-81
2022/10/09 02:17:42;;;;;;;3.90;3.58;;;14.10;99.90;;;;;;5009019;28;20069;-81
2022/10/09 02:20:15;;;;;;;3.72;3.42;;;14.10;99.90;;;;;;5010684;28;20030;-81
2022/10/09 02:22:42;;;;;;;4.95;3.45;;;14.10;99.90;;;;;;5014219;28;20061;-81
2022/10/09 02:25:08;;;;;;;3.55;3.25;;;14.10;99.90;;;;;;5013837;28;20076;-81
2022/10/09 02:27:35;;;;;;;6.85;3.40;;;14.10;99.90;;;;;;5014082;28;20447;-81
2022/10/09 02:30:01;;;;;;;4.28;3.67;;;14.00;99.90;;;;;;5014631;28;20033;-81
2022/10/09 02:32:28;;;;;;;3.90;3.50;;;13.90;99.90;;;;;;5013811;28;20018;-81
2022/10/09 02:34:53;;;;;;;3.90;3.50;;;13.90;99.90;;;;;;5005556;28;20569;-81
2022/10/09 02:37:19;;;;;;;3.92;3.58;;;13.90;99.90;;;;;;5013989;28;20033;-81
2022/10/09 02:39:45;;;;;;;4.20;3.80;;;13.90;99.90;;;;;;5013977;28;20056;-81
2022/10/09 02:42:10;;;;;;;4.80;3.95;;;13.90;99.90;;;;;;5013449;28;20053;-81
2022/10/09 02:44:36;;;;;;;6.80;3.75;;;13.90;99.90;;;;;;5013773;28;20042;-81
2022/10/09 02:47:02;;;;;;;5.00;3.72;;;13.80;99.90;;;;;;5013691;28;20505;-81
2022/10/09 02:49:27;;;;;;;5.25;4.03;;;13.70;99.90;;;;;;5014052;28;20619;-81
2022/10/09 02:51:53;;;;;;;5.60;4.63;;;13.80;99.90;;;;;;5013101;28;20565;-81
2022/10/09 02:54:19;;;;;;;5.43;4.45;;;13.80;99.90;;;;;;5013834;28;20156;-81
2022/10/09 02:56:44;;;;;;;5.35;4.80;;;13.70;99.90;;;;;;5013556;28;20512;-81
2022/10/09 02:59:10;;;;;;;6.75;5.35;;;13.60;99.90;;;;;;5013562;28;20026;-81
2022/10/09 03:01:36;;;;;;;5.28;4.43;;;13.50;99.90;;;;;;5013722;28;20395;-81
2022/10/09 03:04:02;;;;;;;6.40;4.93;;;13.50;99.90;;;;;;5001702;28;20742;-81
2022/10/09 03:06:28;;;;;;;5.10;4.40;;;13.40;99.90;;;;;;5013693;28;20026;-81
2022/10/09 03:08:54;;;;;;;6.03;4.45;;;13.40;99.90;;;;;;5013389;28;20030;-81
2022/10/09 03:11:21;;;;;;;5.15;4.60;;;13.30;99.90;;;;;;5028386;28;20117;-80
2022/10/09 03:13:48;;;;;;;7.28;5.25;;;13.10;99.90;;;;;;5013598;28;20026;-81
2022/10/09 03:16:22;;;;;;;6.45;4.75;;;13.20;99.90;;;;;;5028753;28;20126;-81
2022/10/09 03:18:49;;;;;;;6.70;4.80;;;13.30;99.90;;;;;;5013575;28;20068;-81
2022/10/09 03:21:20;;;;;;;5.00;4.50;;;13.30;99.90;;;;;;5012219;28;20595;-81
2022/10/09 03:23:47;;;;;;;4.82;4.30;;;13.30;99.90;;;;;;5013239;28;20033;-81
2022/10/09 03:26:14;;;;;;;5.05;4.43;;;13.10;99.90;;;;;;5012958;28;20030;-81
2022/10/09 03:28:42;;;;;;;4.90;4.30;;;13.10;99.90;;;;;;5012842;28;20030;-81
2022/10/09 03:31:09;;;;;;;3.97;3.65;;;13.20;99.90;;;;;;5012729;28;20049;-81
2022/10/09 03:33:35;;;;;;;4.35;3.95;;;13.30;99.90;;;;;;5005811;28;20037;-81
2022/10/09 03:36:01;;;;;;;4.57;4.10;;;13.20;99.90;;;;;;5012419;28;20033;-81
2022/10/09 03:38:27;;;;;;;4.35;3.95;;;13.20;99.90;;;;;;5012700;28;20117;-81
2022/10/09 03:40:53;;;;;;;3.95;3.65;;;13.30;99.90;;;;;;5012602;28;20106;-81
2022/10/09 03:43:19;;;;;;;4.25;3.85;;;13.30;99.90;;;;;;5013177;28;20064;-81
2022/10/09 03:45:45;;;;;;;3.72;3.42;;;13.40;99.90;;;;;;5012377;28;20072;-81
2022/10/09 03:48:12;;;;;;;4.07;3.78;;;13.40;99.90;;;;;;5012550;28;20033;-82
2022/10/09 03:50:39;;;;;;;3.95;3.55;;;13.50;99.90;;;;;;5012485;28;20239;-81
2022/10/09 03:53:06;;;;;;;3.90;3.60;;;13.50;99.90;;;;;;5011574;28;20084;-81
2022/10/09 03:55:32;;;;;;;3.92;3.63;;;13.50;99.90;;;;;;5012550;28;20040;-81
2022/10/09 03:57:58;;;;;;;4.07;3.67;;;13.40;99.90;;;;;;5012137;28;20033;-81
2022/10/09 04:00:24;;;;;;;4.72;3.88;;;13.40;99.90;;;;;;5002405;28;20029;-81
2022/10/09 04:02:50;;;;;;;3.95;3.65;;;13.40;99.90;;;;;;5008589;28;20041;-81
2022/10/09 04:05:16;;;;;;;3.88;3.58;;;13.30;99.90;;;;;;5012460;28;20395;-81
2022/10/09 04:07:42;;;;;;;4.07;3.67;;;13.20;99.90;;;;;;5027739;28;20029;-81
2022/10/09 04:10:09;;;;;;;3.60;3.30;;;13.10;99.90;;;;;;5012695;28;20022;-81
2022/10/09 04:12:34;;;;;;;4.18;3.78;;;13.00;99.90;;;;;;5011885;28;20034;-81
2022/10/09 04:15:00;;;;;;;4.22;3.58;;;13.10;99.90;;;;;;5012534;28;20228;-81
2022/10/09 04:17:26;;;;;;;5.18;4.10;;;13.10;99.90;;;;;;5011664;28;20045;-81
2022/10/09 04:19:52;;;;;;;3.97;3.65;;;13.10;99.90;;;;;;5012154;28;20056;-81
2022/10/09 04:22:17;;;;;;;4.47;4.07;;;13.10;99.90;;;;;;5011979;28;20459;-81
2022/10/09 04:24:43;;;;;;;5.10;3.83;;;13.10;99.90;;;;;;5011850;28;20511;-81
2022/10/09 04:27:09;;;;;;;3.95;3.65;;;13.00;99.90;;;;;;5012412;28;20507;-81
2022/10/09 04:29:34;;;;;;;4.50;4.07;;;13.00;99.90;;;;;;5012109;28;20494;-81
2022/10/09 04:32:00;;;;;;;3.95;3.65;;;12.90;99.90;;;;;;5010889;28;20544;-81
2022/10/09 04:34:26;;;;;;;3.90;3.42;;;12.90;99.90;;;;;;5026905;28;20026;-81
2022/10/09 04:36:51;;;;;;;4.00;3.63;;;12.90;99.90;;;;;;5011796;28;20104;-81
2022/10/09 04:39:17;;;;;;;4.60;4.05;;;12.80;99.90;;;;;;5011594;28;20527;-81
2022/10/09 04:41:43;;;;;;;4.53;4.03;;;12.70;99.90;;;;;;5012034;28;20049;-81
2022/10/09 04:44:09;;;;;;;3.67;3.25;;;12.90;99.90;;;;;;5010930;28;20037;-81
2022/10/09 04:46:34;;;;;;;3.72;3.42;;;12.90;99.90;;;;;;5011501;28;20519;-82
2022/10/09 04:49:00;;;;;;;3.50;3.25;;;12.90;99.90;;;;;;5026620;28;20563;-82
2022/10/09 04:51:25;;;;;;;3.47;3.17;;;12.80;99.90;;;;;;5009914;28;20030;-82
2022/10/09 04:53:53;;;;;;;4.07;3.67;;;12.80;99.90;;;;;;5011374;28;20068;-82
2022/10/09 04:56:19;;;;;;;3.38;3.08;;;12.70;99.90;;;;;;5011442;28;20037;-81
2022/10/09 04:58:46;;;;;;;3.55;3.25;;;12.80;99.90;;;;;;5011078;28;20037;-82
2022/10/09 05:01:14;;;;;;;3.70;3.40;;;12.80;99.90;;;;;;5011343;28;20037;-81
2022/10/09 05:03:40;;;;;;;3.58;3.28;;;12.80;99.90;;;;;;5011502;28;20036;-81
2022/10/09 05:06:08;;;;;;;5.65;3.28;;;12.90;99.90;;;;;;5011267;28;20033;-81
2022/10/09 05:08:34;;;;;;;3.25;2.95;;;12.90;99.90;;;;;;5026101;28;20153;-81
2022/10/09 05:11:02;;;;;;;5.10;3.55;;;12.80;99.90;;;;;;5011203;28;20026;-81
2022/10/09 05:13:29;;;;;;;3.72;3.42;;;12.90;99.90;;;;;;5011022;28;20088;-81
2022/10/09 05:15:55;;;;;;;4.00;3.67;;;12.80;99.90;;;;;;5026007;28;20084;-82
2022/10/09 05:18:21;;;;;;;3.50;3.20;;;12.80;99.90;;;;;;5009172;28;20033;-82
2022/10/09 05:20:46;;;;;;;3.28;3.03;;;12.80;99.90;;;;;;5010924;28;20517;-81
2022/10/09 05:23:12;;;;;;;3.42;3.13;;;12.80;99.90;;;;;;5011180;28;20518;-82
2022/10/09 05:25:38;;;;;;;3.45;2.97;;;12.70;99.90;;;;;;5011264;28;20038;-82
2022/10/09 05:28:05;;;;;;;3.75;3.45;;;12.60;99.90;;;;;;5010754;28;20105;-82
2022/10/09 05:30:30;;;;;;;3.53;3.22;;;12.40;99.90;;;;;;5011001;28;20018;-81
2022/10/09 05:32:56;;;;;;;5.07;3.38;;;12.60;99.90;;;;;;5010788;28;20275;-81
2022/10/09 05:35:22;;;;;;;3.40;3.10;;;12.70;99.90;;;;;;5010885;28;20496;-82
2022/10/09 05:37:47;;;;;;;3.30;3.00;;;12.60;99.90;;;;;;5025977;28;20018;-82
2022/10/09 05:40:13;;;;;;;4.15;3.75;;;12.50;99.90;;;;;;5010325;28;20044;-82
2022/10/09 05:42:39;;;;;;;3.67;3.28;;;12.50;99.90;;;;;;5009354;28;20563;-81
2022/10/09 05:45:05;;;;;;;3.42;3.13;;;12.50;99.90;;;;;;5009096;28;20041;-81
2022/10/09 05:47:31;;;;;;;3.67;3.35;;;12.50;99.90;;;;;;5010277;28;20018;-82
2022/10/09 05:49:56;;;;;;;4.10;3.58;;;12.40;99.90;;;;;;5010077;28;20026;-82
2022/10/09 05:52:22;;;;;;;3.45;3.15;;;12.30;99.90;;;;;;5010361;28;20044;-82
2022/10/09 05:54:49;;;;;;;3.53;3.22;;;12.40;99.90;;;;;;5008334;28;20534;-81
2022/10/09 05:57:14;;;;;;;4.10;3.47;;;12.30;99.90;;;;;;5010561;28;20061;-81
2022/10/09 05:59:40;;;;;;;4.18;3.65;;;12.20;99.90;;;;;;5008948;28;20123;-82
2022/10/09 06:02:06;;;;;;;4.47;4.07;;;12.30;99.90;;;;;;5010344;28;20395;-82
2022/10/09 06:04:31;;;;;;;5.13;3.85;;;12.30;99.90;;;;;;5010061;28;20073;-81
2022/10/09 06:06:57;;;;;;;4.00;3.60;;;12.30;99.90;;;;;;5025631;28;20029;-82
2022/10/09 06:09:24;;;;;;;5.93;3.72;;;12.50;99.90;;;;;;5008853;28;20034;-82
2022/10/09 06:11:51;;;;;;;6.82;4.20;;;12.50;99.90;;;;;;5010296;28;20149;-82
2022/10/09 06:14:17;;;;;;;4.22;3.70;;;12.50;99.90;;;;;;5010149;28;20026;-82
2022/10/09 06:16:44;;;;;;;4.57;4.13;;;12.50;99.90;;;;;;5010319;28;20026;-82
2022/10/09 06:19:12;;;;;;;4.32;3.92;;;12.50;99.90;;;;;;5009812;28;20065;-82
2022/10/09 06:21:39;;;;;;;5.35;3.92;;;12.50;99.90;;;;;;5009994;28;20049;-82
2022/10/09 06:24:05;;;;;;;4.40;3.90;;;12.60;99.90;;;;;;5010440;28;20084;-82
2022/10/09 06:26:31;;;;;;;4.63;4.13;;;12.60;99.90;;;;;;5010125;28;20113;-82
2022/10/09 06:28:59;;;;;;;4.15;3.38;;;12.70;99.90;;;;;;5010156;28;20109;-82
2022/10/09 06:31:30;;;;;;;6.10;3.92;;;12.70;99.90;;;;;;5025048;28;20030;-82
2022/10/09 06:33:59;;;;;;;5.70;3.97;;;12.80;99.90;;;;;;5007526;28;20058;-82
2022/10/09 06:36:27;;;;;;;4.65;4.05;;;12.80;99.90;;;;;;5010148;28;20264;-82
2022/10/09 06:38:54;;;;;;;4.32;3.92;;;12.90;99.90;;;;;;5010222;28;20034;-82
2022/10/09 06:41:22;;;;;;;4.45;4.05;;;13.00;99.90;;;;;;5009984;28;20056;-82
2022/10/09 06:43:49;;;;;;;5.13;4.03;;;13.00;99.90;;;;;;5025395;28;20116;-82
2022/10/09 06:46:16;;;;;;;4.75;3.63;;;13.10;99.90;;;;;;5009810;28;20044;-82
2022/10/09 06:48:42;;;;;;;4.07;3.67;;;13.10;99.90;;;;;;5008683;28;20022;-82
2022/10/09 06:51:13;;;;;;;6.20;4.05;;;13.10;99.90;;;;;;5025538;28;20028;-82
2022/10/09 06:53:44;;;;;;;4.60;4.13;;;13.20;99.90;;;;;;5010239;28;20018;-82
2022/10/09 06:56:11;;;;;;;4.70;4.22;;;13.30;99.90;;;;;;5010652;28;20026;-82
2022/10/09 06:58:38;;;;;;;4.45;4.00;;;13.30;99.90;;;;;;5025164;28;20030;-82
2022/10/09 07:01:13;;;;;;;5.03;4.55;;;13.30;99.90;;;;;;5009775;28;20048;-83
2022/10/09 07:03:41;;;;;;;4.95;4.45;;;13.60;99.90;;;;;;5025214;28;20029;-82
2022/10/09 07:06:10;;;;;;;4.68;4.20;;;13.70;99.90;;;;;;5009753;28;20117;-82
2022/10/09 07:08:38;;;;;;;5.07;4.45;;;14.30;99.90;;;;;;5013060;28;20022;-82
2022/10/09 07:11:11;;;;;;;5.47;4.57;;;15.30;99.90;;;;;;5013385;28;20037;-82
2022/10/09 07:13:38;;;;;;;4.82;4.18;;;17.30;99.90;;;;;;5013719;28;20038;-82
2022/10/09 07:16:04;;;;;;;4.18;3.78;;;19.60;99.90;;;;;;5027695;28;20088;-82
2022/10/09 07:18:32;;;;;;;4.15;3.58;;;21.00;99.90;;;;;;5013038;28;20045;-82
2022/10/09 07:21:00;;;;;;;4.00;3.60;;;21.90;99.90;;;;;;5015460;28;20030;-81
2022/10/09 07:23:31;;;;;;;3.63;3.33;;;22.50;99.90;;;;;;5013418;28;20045;-82
2022/10/09 07:25:57;;;;;;;4.40;3.97;;;23.30;99.00;;;;;;5017812;28;20090;-82
2022/10/09 07:28:25;;;;;;;5.55;4.10;;;23.90;97.60;;;;;;5013499;28;20101;-82
2022/10/09 07:30:51;;;;;;;4.15;3.80;;;24.00;97.00;;;;;;5023520;28;20049;-82
2022/10/09 07:33:16;;;;;;;3.65;3.30;;;24.40;96.40;;;;;;5013734;28;20480;-82
2022/10/09 07:35:42;;;;;;;4.78;3.80;;;24.30;96.20;;;;;;5012699;28;20187;-82
2022/10/09 07:38:08;;;;;;;4.13;3.72;;;22.50;99.30;;;;;;5012161;28;20030;-81
2022/10/09 07:40:34;;;;;;;3.85;3.55;;;20.10;99.90;;;;;;5011714;28;20048;-81
2022/10/09 07:43:00;;;;;;;4.70;4.20;;;18.90;99.90;;;;;;5009918;28;20080;-81
2022/10/09 07:45:26;;;;;;;6.00;3.88;;;18.10;99.90;;;;;;5012148;28;20037;-81
2022/10/09 07:47:52;;;;;;;5.03;4.18;;;17.50;99.90;;;;;;5012446;28;20014;-81
2022/10/09 07:50:18;;;;;;;4.03;3.72;;;17.50;99.90;;;;;;5027507;28;20484;-81
2022/10/09 07:52:43;;;;;;;4.13;3.80;;;18.20;99.90;;;;;;5012341;28;20014;-81
2022/10/09 07:55:09;;;;;;;4.85;3.78;;;18.00;99.90;;;;;;5027525;28;20407;-81
2022/10/09 07:57:35;;;;;;;4.82;3.78;;;19.90;99.90;;;;;;5012453;28;20514;-81
2022/10/09 08:00:00;;;;;;;4.28;3.88;;;22.50;99.90;;;;;;5011750;28;20084;-81
2022/10/09 08:02:26;;;;;;;5.03;3.65;;;23.80;99.90;;;;;;5012106;28;20104;-80
2022/10/09 08:04:52;;;;;;;4.15;3.65;;;24.10;99.90;;;;;;5027408;28;20035;-80
2022/10/09 08:07:17;;;;;;;5.32;3.60;;;24.70;99.30;;;;;;5014811;28;20117;-81
2022/10/09 08:09:43;;;;;;;5.40;3.70;;;25.00;97.90;;;;;;5018133;28;20061;-80
2022/10/09 08:12:08;;;;;;;5.03;4.30;;;25.30;97.80;;;;;;5036481;28;20500;-80
2022/10/09 08:14:34;;;;;;;4.13;3.72;;;25.50;96.80;;;;;;5027351;28;20519;-80
2022/10/09 08:17:00;;;;;;;4.40;4.00;;;25.50;97.50;;;;;;5012688;28;20036;-80
2022/10/09 08:19:25;;;;;;;4.78;4.32;;;25.80;96.90;;;;;;5026026;28;20033;-80
2022/10/09 08:21:51;;;;;;;3.70;3.28;;;26.10;97.30;;;;;;5012045;28;20153;-80
2022/10/09 08:24:17;;;;;;;4.82;4.32;;;26.10;96.60;;;;;;5011000;28;20026;-80
2022/10/09 08:26:43;;;;;;;3.97;3.58;;;26.00;96.70;;;;;;5011653;28;20571;-80
2022/10/09 08:29:12;;;;;;;3.95;3.65;;;26.00;97.10;;;;;;5012107;28;20033;-80
2022/10/09 08:31:38;;;;;;;3.92;3.63;;;26.20;96.70;;;;;;5012058;28;20010;-80
2022/10/09 08:34:04;;;;;;;4.03;3.67;;;26.00;97.60;;;;;;5004409;28;20091;-80
2022/10/09 08:36:31;;;;;;;5.25;3.92;;;25.90;97.30;;;;;;5027016;28;20050;-80
2022/10/09 08:38:57;;;;;;;4.68;3.88;;;25.40;98.00;;;;;;5026754;28;20127;-80
2022/10/09 08:41:31;;;;;;;4.13;3.72;;;25.00;98.40;;;;;;5011166;28;20030;-80
2022/10/09 08:44:05;;;;;;;3.88;3.47;;;24.90;99.40;;;;;;5011501;28;20049;-80
2022/10/09 08:46:52;;;;;;;4.80;3.92;;;24.20;99.90;;;;;;5026463;28;20093;-80
2022/10/09 08:49:47;;;;;;;4.72;3.88;;;24.50;99.90;;;;;;5009265;28;20075;-80
2022/10/09 08:52:22;;;;;;;3.60;3.30;;;23.50;99.90;;;;;;5012644;28;20022;-80
2022/10/09 08:54:48;;;;;;;4.80;4.00;;;23.30;99.90;;;;;;5007593;28;20029;-80
2022/10/09 08:57:16;;;;;;;3.85;3.45;;;22.80;99.90;;;;;;5026357;28;20022;-80
2022/10/09 08:59:43;;;;;;;4.32;3.13;;;21.90;99.90;;;;;;5011602;28;20088;-80
2022/10/09 09:02:30;;;;;;;4.15;3.70;;;20.90;99.90;;;;;;5011498;28;20013;-81
2022/10/09 09:05:30;;;;;;;3.17;2.88;;;21.30;99.90;;;;;;5025895;28;20507;-81
2022/10/09 09:08:40;;;;;;;3.13;2.83;;;21.30;99.90;;;;;;5011103;28;20044;-80
2022/10/09 09:11:26;;;;;;;5.18;3.38;;;21.10;99.90;;;;;;5010096;28;20037;-80
2022/10/09 09:14:11;;;;;;;6.13;3.10;;;20.80;99.90;;;;;;5026326;28;20105;-80
2022/10/09 09:16:55;;;;;;;4.60;3.20;;;21.10;99.90;;;;;;5011291;28;20014;-80
2022/10/09 09:19:41;;;;;;;5.13;2.88;;;21.20;99.90;;;;;;5026085;28;20037;-80
2022/10/09 09:22:12;;;;;;;7.13;3.22;;;21.70;99.90;;;;;;5010555;28;20060;-80
2022/10/09 09:24:51;;;;;;;3.65;2.42;;;21.70;99.90;;;;;;5010496;28;20052;-80
2022/10/09 09:27:26;;;;;;;4.40;2.90;;;21.80;99.90;;;;;;5025622;28;20050;-80
2022/10/09 09:29:54;;;;;;;5.65;3.10;;;21.60;99.90;;;;;;5026013;28;20033;-80
2022/10/09 09:32:23;;;;;;;4.00;2.70;;;21.60;99.90;;;;;;5010988;28;20022;-80
2022/10/09 09:34:49;;;;;;;4.68;3.22;;;22.00;99.90;;;;;;5021257;28;20173;-80
2022/10/09 09:37:15;;;;;;;4.65;2.67;;;21.80;99.90;;;;;;5007021;28;20018;-80
2022/10/09 09:39:42;;;;;;;4.70;2.50;;;21.90;99.90;;;;;;5025545;28;20084;-80
2022/10/09 09:42:08;;;;;;;3.55;2.90;;;21.70;99.90;;;;;;5010830;28;20292;-80
2022/10/09 09:44:38;;;;;;;5.57;2.72;;;21.80;99.90;;;;;;5010875;28;20029;-80
2022/10/09 09:47:13;;;;;;;3.05;2.75;;;21.80;99.90;;;;;;5009450;28;20117;-80
2022/10/09 09:49:56;;;;;;;8.45;3.22;;;21.30;99.90;;;;;;5010958;28;20030;-80
2022/10/09 09:52:23;;;;;;;4.88;2.72;;;21.60;99.90;;;;;;4998233;28;20024;-80
2022/10/09 09:54:49;;;;;;;6.35;2.70;;;21.80;99.90;;;;;;5008586;28;20542;-80
2022/10/09 09:57:31;;;;;;;3.95;3.03;;;21.90;99.90;;;;;;5010462;28;20034;-80
2022/10/09 10:00:20;;;;;;;4.97;3.13;;;22.20;99.90;;;;;;5025271;28;20092;-80
2022/10/09 10:02:46;;;;;;;5.20;3.25;;;21.50;99.90;;;;;;5010888;28;20030;-80
2022/10/09 10:05:26;;;;;;;5.18;2.53;;;21.70;99.90;;;;;;5010321;28;20529;-80
2022/10/09 10:07:53;;;;;;;6.70;3.50;;;21.80;99.90;;;;;;5025736;28;20032;-81
2022/10/09 10:10:28;;;;;;;5.18;3.28;;;21.70;99.90;;;;;;5009643;28;20030;-80
2022/10/09 10:12:58;;;;;;;5.35;2.45;;;21.90;99.90;;;;;;5010482;28;20022;-80
2022/10/09 10:15:32;;;;;;;4.95;3.10;;;22.10;99.90;;;;;;5010077;28;20032;-80
2022/10/09 10:18:04;;;;;;;5.18;2.58;;;22.10;99.90;;;;;;5025512;28;20026;-81
2022/10/09 10:20:32;;;;;;;5.28;2.80;;;22.00;99.90;;;;;;5010054;28;20037;-80
2022/10/09 10:22:59;;;;;;;7.38;3.00;;;22.30;99.90;;;;;;5010209;28;20070;-79
2022/10/09 10:25:33;;;;;;;5.80;3.05;;;22.20;99.90;;;;;;5010017;28;20040;-80
2022/10/09 10:28:12;;;;;;;7.30;2.78;;;22.10;99.90;;;;;;5010343;28;20101;-80
2022/10/09 10:30:39;;;;;;;4.10;2.53;;;22.00;99.90;;;;;;5010286;28;20037;-80
2022/10/09 10:33:38;;;;;;;5.28;2.13;;;22.10;99.90;;;;;;5022879;28;20015;-80
2022/10/09 10:36:04;;;;;;;3.85;3.00;;;22.20;99.90;;;;;;5011731;28;20068;-81
2022/10/09 10:38:48;;;;;;;9.20;2.85;;;21.90;99.90;;;;;;5010314;28;20541;-80
2022/10/09 10:41:25;;;;;;;5.82;2.70;;;21.70;99.90;;;;;;5010107;28;20499;-80
2022/10/09 10:43:57;;;;;;;4.20;2.50;;;21.70;99.90;;;;;;5014814;28;20022;-80
2022/10/09 10:46:58;;;;;;;5.35;2.67;;;21.90;99.90;;;;;;5013608;28;20025;-81
2022/10/09 10:49:25;;;;;;;5.88;2.38;;;22.10;99.90;;;;;;5029403;28;20026;-82
2022/10/09 10:52:21;;;;;;;4.45;2.67;;;22.00;99.90;;;;;;5012345;28;20081;-82
2022/10/09 10:55:11;;;;;;;5.15;2.92;;;22.30;99.90;;;;;;5013350;28;20022;-83
2022/10/09 10:57:49;;;;;;;6.78;2.90;;;22.10;99.90;;;;;;5004523;28;20109;-82
2022/10/09 11:00:16;;;;;;;4.13;2.38;;;22.10;99.90;;;;;;5012994;28;20026;-82
2022/10/09 11:03:15;;;;;;;3.20;2.42;;;22.10;99.90;;;;;;5012054;28;20034;-82
2022/10/09 11:05:54;;;;;;;3.40;2.35;;;22.20;99.90;;;;;;5002014;28;20121;-82
2022/10/09 11:08:57;;;;;;;5.55;3.00;;;22.30;99.90;;;;;;5013675;28;20021;-82
2022/10/09 11:11:40;;;;;;;5.22;2.92;;;22.40;99.90;;;;;;5018340;28;20594;-82
2022/10/09 11:14:30;;;;;;;4.65;2.55;;;22.50;99.90;;;;;;5031231;28;20029;-82
2022/10/09 11:16:56;;;;;;;3.95;2.45;;;22.50;99.90;;;;;;5030887;28;20514;-82
2022/10/09 11:19:45;;;;;;;5.57;2.38;;;22.50;99.90;;;;;;5030856;28;20068;-82
2022/10/09 11:22:30;;;;;;;6.45;2.83;;;22.30;99.90;;;;;;5022504;28;20079;-82
2022/10/09 11:25:25;;;;;;;6.93;2.80;;;22.10;99.90;;;;;;5030372;28;20033;-82
2022/10/09 11:27:56;;;;;;;3.92;2.28;;;22.50;99.90;;;;;;5030415;28;20034;-82
2022/10/09 11:30:25;;;;;;;3.95;2.83;;;22.70;99.90;;;;;;5030600;28;20491;-82
2022/10/09 11:33:14;;;;;;;3.38;2.28;;;22.50;99.80;;;;;;5030214;28;20029;-82
2022/10/09 11:35:48;;;;;;;5.55;2.45;;;22.60;99.90;;;;;;5029775;28;20038;-82
2022/10/09 11:38:31;;;;;;;6.43;2.90;;;22.70;99.90;;;;;;5030597;28;20044;-82
2022/10/09 11:40:57;;;;;;;5.35;2.58;;;22.70;99.90;;;;;;5029755;28;20541;-82
2022/10/09 11:43:45;;;;;;;7.20;2.50;;;22.60;99.90;;;;;;5026377;28;20374;-82
2022/10/09 11:46:39;;;;;;;6.90;2.67;;;22.60;99.90;;;;;;5027351;28;20500;-82
2022/10/09 11:49:16;;;;;;;3.88;2.53;;;22.80;99.90;;;;;;5012799;28;20022;-82
2022/10/09 11:51:42;;;;;;;4.03;2.40;;;22.70;98.80;;;;;;5012428;28;20030;-81
2022/10/09 11:54:15;;;;;;;4.18;2.55;;;22.80;99.30;;;;;;5012796;28;20040;-81
2022/10/09 11:57:01;;;;;;;3.72;2.28;;;22.80;99.40;;;;;;5027092;28;20488;-82
2022/10/09 11:59:35;;;;;;;3.95;2.40;;;22.80;99.00;;;;;;5007427;28;20030;-81
2022/10/09 12:02:14;;;;;;;4.32;2.38;;;22.80;99.10;;;;;;5009494;28;20025;-81
2022/10/09 12:04:41;;;;;;;4.85;2.13;;;22.60;98.50;;;;;;5012079;28;20065;-81
2022/10/09 12:07:08;;;;;;;5.43;2.50;;;22.60;98.70;;;;;;5012352;28;20506;-81
2022/10/09 12:09:36;;;;;;;3.45;2.50;;;22.60;98.60;;;;;;5012161;28;20037;-81
2022/10/09 12:12:18;;;;;;;3.88;2.20;;;22.80;99.20;;;;;;5011883;28;20029;-81
2022/10/09 12:14:47;;;;;;;5.60;2.67;;;22.60;98.80;;;;;;5025501;28;20021;-81
2022/10/09 12:17:22;;;;;;;4.00;2.50;;;22.60;98.50;;;;;;5012041;28;20160;-81
2022/10/09 12:20:00;;;;;;;3.50;2.35;;;22.60;98.80;;;;;;5009777;28;20022;-81
2022/10/09 12:22:34;;;;;;;5.70;2.67;;;22.90;98.80;;;;;;5012092;28;20053;-81
2022/10/09 12:25:06;;;;;;;3.00;2.15;;;22.70;97.90;;;;;;5012322;28;20050;-81
2022/10/09 12:27:39;;;;;;;5.03;2.15;;;22.60;98.40;;;;;;5011267;28;20121;-81
2022/10/09 12:30:11;;;;;;;4.35;2.53;;;22.50;98.10;;;;;;5012557;28;20030;-81
2022/10/09 12:33:15;;;;;;;4.90;2.58;;;22.80;99.00;;;;;;5009012;28;20032;-82
2022/10/09 12:35:45;;;;;;;4.63;2.63;;;22.80;98.00;;;;;;5008257;28;20036;-81
2022/10/09 12:38:33;;;;;;;4.20;2.40;;;22.80;97.50;;;;;;5026577;28;20440;-81
2022/10/09 12:41:05;;;;;;;3.88;1.80;;;22.80;96.70;;;;;;5011416;28;20295;-81
2022/10/09 12:43:33;;;;;;;5.00;2.30;;;22.80;97.50;;;;;;5011505;28;20037;-81
2022/10/09 12:45:59;;;;;;;4.18;2.33;;;22.80;97.00;;;;;;5010256;28;20117;-82
2022/10/09 12:48:27;;;;;;;3.17;2.03;;;22.70;98.00;;;;;;5011789;28;20239;-82
2022/10/09 12:50:53;;;;;;;3.63;2.00;;;22.80;97.10;;;;;;5011307;28;20014;-82
2022/10/09 12:53:25;;;;;;;5.00;2.00;;;22.90;96.30;;;;;;5011741;28;20030;-82
2022/10/09 12:55:59;;;;;;;7.78;2.33;;;22.80;96.80;;;;;;5011781;28;20022;-82
2022/10/09 12:58:31;;;;;;;3.50;1.85;;;22.90;96.70;;;;;;5026774;28;20030;-81
2022/10/09 13:01:00;;;;;;;2.55;1.75;;;22.90;97.10;;;;;;5003854;28;20034;-80
2022/10/09 13:03:42;;;;;;;5.28;1.95;;;22.90;96.90;;;;;;5010966;28;20088;-81
2022/10/09 13:06:19;;;;;;;4.35;1.88;;;22.90;96.50;;;;;;5022605;28;20022;-81